createdAt,value
2023-03-19T00:00:46.015Z,29.17
2023-03-19T00:03:13.354Z,34.70
2023-03-19T00:05:40.658Z,36.20
2023-03-19T00:08:07.952Z,38.87
2023-03-19T00:10:38.694Z,35.23
2023-03-19T00:13:05.976Z,38.17
2023-03-19T00:15:33.465Z,36.73
2023-03-19T00:18:00.866Z,37.27
2023-03-19T00:20:28.466Z,35.43
2023-03-19T00:22:56.072Z,35.43
2023-03-19T00:25:23.805Z,31.77
2023-03-19T00:27:52.758Z,34.97
2023-03-19T00:30:20.049Z,32.50
2023-03-19T00:32:47.380Z,31.40
2023-03-19T00:35:14.867Z,27.57
2023-03-19T00:37:43.155Z,30.03
2023-03-19T00:40:11.705Z,30.47
2023-03-19T00:42:39.988Z,30.23
2023-03-19T00:45:07.747Z,27.47
2023-03-19T00:47:36.056Z,31.47
2023-03-19T00:50:04.482Z,27.33
2023-03-19T00:52:32.054Z,26.77
2023-03-19T00:54:59.332Z,29.60
2023-03-19T00:57:27.018Z,27.17
2023-03-19T00:59:54.399Z,29.20
2023-03-19T01:02:21.661Z,27.70
2023-03-19T01:04:49.676Z,34.03
2023-03-19T01:07:17.070Z,31.53
2023-03-19T01:09:44.381Z,30.27
2023-03-19T01:12:11.682Z,28.27
2023-03-19T01:14:39.262Z,31.10
2023-03-19T01:17:06.783Z,28.20
2023-03-19T01:19:34.491Z,29.33
2023-03-19T01:22:02.180Z,27.87
2023-03-19T01:24:31.427Z,28.57
2023-03-19T01:26:59.024Z,29.33
2023-03-19T01:29:34.177Z,29.17
2023-03-19T01:32:10.598Z,28.60
2023-03-19T01:35:13.123Z,24.27
2023-03-19T01:37:40.571Z,22.30
2023-03-19T01:40:09.488Z,24.97
2023-03-19T01:42:51.474Z,24.50
2023-03-19T01:45:38.699Z,28.50
2023-03-19T01:48:38.800Z,32.27
2023-03-19T01:51:11.585Z,31.67
2023-03-19T01:54:12.240Z,27.60
2023-03-19T01:56:48.595Z,29.47
2023-03-19T01:59:37.358Z,37.37
2023-03-19T02:02:20.235Z,34.47
2023-03-19T02:04:49.681Z,30.87
2023-03-19T02:07:17.487Z,31.43
2023-03-19T02:09:45.325Z,31.20
2023-03-19T02:12:13.340Z,31.33
2023-03-19T02:14:40.842Z,31.80
2023-03-19T02:17:08.569Z,33.43
2023-03-19T02:19:42.922Z,36.40
2023-03-19T02:22:11.849Z,32.20
2023-03-19T02:24:42.177Z,32.13
2023-03-19T02:27:13.738Z,31.90
2023-03-19T02:29:46.467Z,29.10
2023-03-19T02:32:14.815Z,29.90
2023-03-19T02:34:44.511Z,28.17
2023-03-19T02:37:15.425Z,25.90
2023-03-19T02:39:51.284Z,26.43
2023-03-19T02:42:19.987Z,27.23
2023-03-19T02:44:47.791Z,25.50
2023-03-19T02:47:15.494Z,24.43
2023-03-19T02:49:42.789Z,27.33
2023-03-19T02:52:10.718Z,26.80
2023-03-19T02:54:37.997Z,28.07
2023-03-19T02:57:05.951Z,25.07
2023-03-19T02:59:33.947Z,26.30
2023-03-19T03:02:01.453Z,25.57
2023-03-19T03:04:29.228Z,27.10
2023-03-19T03:06:56.579Z,27.03
2023-03-19T03:09:24.070Z,26.20
2023-03-19T03:11:51.611Z,26.07
2023-03-19T03:14:19.040Z,25.30
2023-03-19T03:16:46.414Z,23.27
2023-03-19T03:19:13.808Z,22.07
2023-03-19T03:21:42.514Z,23.90
2023-03-19T03:24:10.970Z,24.83
2023-03-19T03:26:39.027Z,24.80
2023-03-19T03:29:07.210Z,27.30
2023-03-19T03:31:34.985Z,25.37
2023-03-19T03:34:02.720Z,29.03
2023-03-19T03:36:30.098Z,27.67
2023-03-19T03:38:57.571Z,24.40
2023-03-19T03:41:25.771Z,26.97
2023-03-19T03:43:53.574Z,31.93
2023-03-19T03:46:20.918Z,26.20
2023-03-19T03:48:51.392Z,29.10
2023-03-19T03:51:19.477Z,28.13
2023-03-19T03:53:46.950Z,27.53
2023-03-19T03:56:14.826Z,26.50
2023-03-19T03:58:42.221Z,25.33
2023-03-19T04:01:11.761Z,25.67
2023-03-19T04:03:39.236Z,23.83
2023-03-19T04:06:07.084Z,24.40
2023-03-19T04:08:34.386Z,24.67
2023-03-19T04:11:01.705Z,25.13
2023-03-19T04:13:29.349Z,25.03
2023-03-19T04:15:57.335Z,27.10
2023-03-19T04:18:26.266Z,26.37
2023-03-19T04:20:53.719Z,25.80
2023-03-19T04:23:21.009Z,25.97
2023-03-19T04:25:48.316Z,24.77
2023-03-19T04:28:15.755Z,23.60
2023-03-19T04:30:46.057Z,24.87
2023-03-19T04:33:13.644Z,23.13
2023-03-19T04:35:41.517Z,21.73
2023-03-19T04:38:09.065Z,22.27
2023-03-19T04:40:36.619Z,21.17
2023-03-19T04:43:04.283Z,21.17
2023-03-19T04:45:33.650Z,20.03
2023-03-19T04:48:01.697Z,20.23
2023-03-19T04:50:30.784Z,24.90
2023-03-19T04:52:58.298Z,24.70
2023-03-19T04:55:25.947Z,25.17
2023-03-19T04:58:05.262Z,26.13
2023-03-19T05:00:35.384Z,24.90
2023-03-19T05:03:02.991Z,26.57
2023-03-19T05:05:31.975Z,27.73
2023-03-19T05:07:59.605Z,27.03
2023-03-19T05:10:27.330Z,26.00
2023-03-19T05:12:54.773Z,25.60
2023-03-19T05:15:22.519Z,22.90
2023-03-19T05:18:08.650Z,21.70
2023-03-19T05:20:39.398Z,24.77
2023-03-19T05:23:17.949Z,22.60
2023-03-19T05:25:54.641Z,22.07
2023-03-19T05:28:39.943Z,23.30
2023-03-19T05:31:07.334Z,21.73
2023-03-19T05:33:41.888Z,21.60
2023-03-19T05:36:09.885Z,22.47
2023-03-19T05:38:52.398Z,22.40
2023-03-19T05:41:27.013Z,21.70
2023-03-19T05:44:02.197Z,23.07
2023-03-19T05:46:44.849Z,23.37
2023-03-19T05:49:12.775Z,22.83
2023-03-19T05:51:40.069Z,22.43
2023-03-19T05:54:08.991Z,22.33
2023-03-19T05:56:40.438Z,22.27
2023-03-19T05:59:21.590Z,21.40
2023-03-19T06:02:00.972Z,20.43
2023-03-19T06:04:29.059Z,22.27
2023-03-19T06:06:57.170Z,21.33
2023-03-19T06:09:24.670Z,21.97
2023-03-19T06:11:55.864Z,22.13
2023-03-19T06:14:48.033Z,20.83
2023-03-19T06:17:36.005Z,22.20
2023-03-19T06:20:06.724Z,21.20
2023-03-19T06:22:34.060Z,23.83
2023-03-19T06:25:01.543Z,23.10
2023-03-19T06:27:30.685Z,22.10
2023-03-19T06:30:09.800Z,22.97
2023-03-19T06:32:38.683Z,29.77
2023-03-19T06:35:11.274Z,25.53
2023-03-19T06:37:40.247Z,25.83
2023-03-19T06:40:08.042Z,24.57
2023-03-19T06:42:35.355Z,27.00
2023-03-19T06:45:03.030Z,25.03
2023-03-19T06:47:30.461Z,24.77
2023-03-19T06:49:57.907Z,25.00
2023-03-19T06:52:25.405Z,27.73
2023-03-19T06:54:52.708Z,26.47
2023-03-19T06:57:20.024Z,29.63
2023-03-19T06:59:47.333Z,31.40
2023-03-19T07:02:15.282Z,27.53
2023-03-19T07:04:42.760Z,27.93
2023-03-19T07:07:10.051Z,28.53
2023-03-19T07:09:37.886Z,31.10
2023-03-19T07:12:05.291Z,32.53
2023-03-19T07:14:32.699Z,33.27
2023-03-19T07:17:00.412Z,33.07
2023-03-19T07:19:27.863Z,32.33
2023-03-19T07:21:55.202Z,33.07
2023-03-19T07:24:22.667Z,32.67
2023-03-19T07:26:49.951Z,35.53
2023-03-19T07:29:17.773Z,34.07
2023-03-19T07:31:45.240Z,32.80
2023-03-19T07:34:12.979Z,34.23
2023-03-19T07:36:40.258Z,30.20
2023-03-19T07:39:07.606Z,29.17
2023-03-19T07:41:34.898Z,29.57
2023-03-19T07:44:02.383Z,28.43
2023-03-19T07:46:30.142Z,25.90
2023-03-19T07:48:57.469Z,22.13
2023-03-19T07:51:25.378Z,21.93
2023-03-19T07:53:52.753Z,19.27
2023-03-19T07:56:20.098Z,18.63
2023-03-19T07:58:47.506Z,18.77
2023-03-19T08:01:15.483Z,14.85
2023-03-19T08:03:43.224Z,15.50
2023-03-19T08:06:10.615Z,15.50
2023-03-19T08:08:38.007Z,12.87
2023-03-19T08:11:05.425Z,9.00
2023-03-19T08:13:32.732Z,5.70
2023-03-19T08:16:00.439Z,4.53
2023-03-19T08:18:27.864Z,4.23
2023-03-19T08:20:55.624Z,3.73
2023-03-19T08:23:23.300Z,3.57
2023-03-19T08:25:52.119Z,4.80
2023-03-19T08:28:19.841Z,3.10
2023-03-19T08:30:47.330Z,3.00
2023-03-19T08:33:14.752Z,4.10
2023-03-19T08:35:42.129Z,2.90
2023-03-19T08:38:10.523Z,3.13
2023-03-19T08:40:38.096Z,3.17
2023-03-19T08:43:14.764Z,3.80
2023-03-19T08:45:46.696Z,3.70
2023-03-19T08:48:14.113Z,3.70
2023-03-19T08:50:44.659Z,4.10
2023-03-19T08:53:11.955Z,4.03
2023-03-19T08:55:39.412Z,3.90
2023-03-19T08:58:07.052Z,3.97
2023-03-19T09:00:34.550Z,3.97
2023-03-19T09:03:02.060Z,4.60
2023-03-19T09:05:29.876Z,3.97
2023-03-19T09:07:57.239Z,4.23
2023-03-19T09:10:24.546Z,4.37
2023-03-19T09:12:52.023Z,4.17
2023-03-19T09:15:19.338Z,3.67
2023-03-19T09:17:46.654Z,4.37
2023-03-19T09:20:14.036Z,3.57
2023-03-19T09:22:41.342Z,4.30
2023-03-19T09:25:08.968Z,4.10
2023-03-19T09:27:36.292Z,5.33
2023-03-19T09:30:03.826Z,4.40
2023-03-19T09:32:31.579Z,4.20
2023-03-19T09:34:59.118Z,3.70
2023-03-19T09:37:26.390Z,3.97
2023-03-19T09:39:53.662Z,4.70
2023-03-19T09:42:30.989Z,4.67
2023-03-19T09:44:59.568Z,3.97
2023-03-19T09:47:27.031Z,4.10
2023-03-19T09:49:55.755Z,4.17
2023-03-19T09:52:25.780Z,4.00
2023-03-19T09:54:53.543Z,3.47
2023-03-19T09:57:21.488Z,4.03
2023-03-19T09:59:49.198Z,3.40
2023-03-19T10:02:22.599Z,3.17
2023-03-19T10:04:49.937Z,4.37
2023-03-19T10:07:27.595Z,4.37
2023-03-19T10:09:54.914Z,4.37
2023-03-19T10:12:37.522Z,4.77
2023-03-19T10:15:16.582Z,4.60
2023-03-19T10:17:47.942Z,4.53
2023-03-19T10:20:15.654Z,5.00
2023-03-19T10:22:49.579Z,4.50
2023-03-19T10:25:20.962Z,4.90
2023-03-19T10:27:51.410Z,4.90
2023-03-19T10:30:19.911Z,6.30
2023-03-19T10:32:54.595Z,4.37
2023-03-19T10:35:51.604Z,4.80
2023-03-19T10:38:23.147Z,4.60
2023-03-19T10:41:04.987Z,5.20
2023-03-19T10:43:34.834Z,4.23
2023-03-19T10:46:02.276Z,4.70
2023-03-19T10:48:30.787Z,4.87
2023-03-19T10:50:59.783Z,4.87
2023-03-19T10:53:32.775Z,5.17
2023-03-19T10:56:07.794Z,5.17
2023-03-19T10:58:36.358Z,4.83
2023-03-19T11:01:06.494Z,5.13
2023-03-19T11:03:51.216Z,5.73
2023-03-19T11:06:31.774Z,5.33
2023-03-19T11:09:01.196Z,4.87
2023-03-19T11:11:34.696Z,5.63
2023-03-19T11:14:09.320Z,6.40
2023-03-19T11:16:54.850Z,5.47
2023-03-19T11:19:23.986Z,5.83
2023-03-19T11:22:03.569Z,5.70
2023-03-19T11:24:34.520Z,5.83
2023-03-19T11:27:03.351Z,5.53
2023-03-19T11:29:31.277Z,5.00
2023-03-19T11:32:08.637Z,4.33
2023-03-19T11:34:51.342Z,3.83
2023-03-19T11:37:37.497Z,4.07
2023-03-19T11:40:07.935Z,4.10
2023-03-19T11:42:38.640Z,4.57
2023-03-19T11:45:18.194Z,3.90
2023-03-19T11:47:48.959Z,3.73
2023-03-19T11:50:34.431Z,3.93
2023-03-19T11:53:14.190Z,3.60
2023-03-19T11:55:45.692Z,3.70
2023-03-19T11:58:13.016Z,3.83
2023-03-19T12:00:48.007Z,3.90
2023-03-19T12:03:33.809Z,3.60
2023-03-19T12:06:07.571Z,3.73
2023-03-19T12:08:40.687Z,2.87
2023-03-19T12:11:18.355Z,3.63
2023-03-19T12:14:04.494Z,3.30
2023-03-19T12:16:45.755Z,4.13
2023-03-19T12:19:28.244Z,3.90
2023-03-19T12:22:01.923Z,3.80
2023-03-19T12:24:50.487Z,3.87
2023-03-19T12:27:26.312Z,4.30
2023-03-19T12:30:13.350Z,4.13
2023-03-19T12:33:00.994Z,4.13
2023-03-19T12:35:36.125Z,3.70
2023-03-19T12:38:11.587Z,4.07
2023-03-19T12:40:52.642Z,3.40
2023-03-19T12:43:25.157Z,4.10
2023-03-19T12:45:58.258Z,4.10
2023-03-19T12:48:28.554Z,3.40
2023-03-19T12:51:01.886Z,3.80
2023-03-19T12:53:33.947Z,3.20
2023-03-19T12:56:06.023Z,3.93
2023-03-19T12:58:55.882Z,3.87
2023-03-19T13:01:27.174Z,3.90
2023-03-19T13:04:14.788Z,4.03
2023-03-19T13:06:46.167Z,3.50
2023-03-19T13:09:25.701Z,3.47
2023-03-19T13:11:56.111Z,3.40
2023-03-19T13:14:42.137Z,3.60
2023-03-19T13:17:29.667Z,3.17
2023-03-19T13:19:57.077Z,4.10
2023-03-19T13:22:33.955Z,3.97
2023-03-19T13:25:02.536Z,3.40
2023-03-19T13:27:34.549Z,3.50
2023-03-19T13:30:17.251Z,3.93
2023-03-19T13:32:51.924Z,4.00
2023-03-19T13:35:36.588Z,4.33
2023-03-19T13:38:21.057Z,4.07
2023-03-19T13:40:52.774Z,4.57
2023-03-19T13:43:29.568Z,4.73
2023-03-19T13:46:12.453Z,4.00
2023-03-19T13:48:50.344Z,4.93
2023-03-19T13:51:21.755Z,5.60
2023-03-19T13:54:01.986Z,4.73
2023-03-19T13:56:30.696Z,4.23
2023-03-19T13:59:21.717Z,4.73
2023-03-19T14:01:49.056Z,5.27
2023-03-19T14:04:19.391Z,6.20
2023-03-19T14:06:54.991Z,5.90
2023-03-19T14:09:30.064Z,5.77
2023-03-19T14:12:09.255Z,6.03
2023-03-19T14:14:41.157Z,6.03
2023-03-19T14:17:15.419Z,5.20
2023-03-19T14:19:43.317Z,6.23
2023-03-19T14:22:19.418Z,6.50
2023-03-19T14:25:02.892Z,5.17
2023-03-19T14:27:33.218Z,5.80
2023-03-19T14:30:11.837Z,6.50
2023-03-19T14:32:41.003Z,5.37
2023-03-19T14:35:11.193Z,7.23
2023-03-19T14:37:39.457Z,5.67
2023-03-19T14:40:12.543Z,6.03
2023-03-19T14:42:41.183Z,6.53
2023-03-19T14:45:14.747Z,9.00
2023-03-19T14:47:42.153Z,10.23
2023-03-19T14:50:15.763Z,9.00
2023-03-19T14:52:56.825Z,9.83
2023-03-19T14:55:33.388Z,9.90
2023-03-19T14:58:02.197Z,8.53
2023-03-19T15:00:29.496Z,8.93
2023-03-19T15:02:57.132Z,7.63
2023-03-19T15:05:33.207Z,8.83
2023-03-19T15:08:11.487Z,9.47
2023-03-19T15:10:45.551Z,8.47
2023-03-19T15:13:27.781Z,7.33
2023-03-19T15:16:05.070Z,7.90
2023-03-19T15:18:32.501Z,8.40
2023-03-19T15:21:00.423Z,8.10
2023-03-19T15:23:28.914Z,7.27
2023-03-19T15:25:58.061Z,7.70
2023-03-19T15:28:28.052Z,7.70
2023-03-19T15:31:03.413Z,7.47
2023-03-19T15:33:42.138Z,8.10
2023-03-19T15:36:11.379Z,7.83
2023-03-19T15:38:41.424Z,8.53
2023-03-19T15:41:09.556Z,8.17
2023-03-19T15:43:38.771Z,8.73
2023-03-19T15:46:07.353Z,7.70
2023-03-19T15:48:38.233Z,8.30
2023-03-19T15:51:07.409Z,8.20
2023-03-19T15:53:35.610Z,8.70
2023-03-19T15:56:04.073Z,8.83
2023-03-19T15:58:33.134Z,9.40
2023-03-19T16:01:01.746Z,9.43
2023-03-19T16:03:32.534Z,9.33
2023-03-19T16:06:02.848Z,8.53
2023-03-19T16:08:31.706Z,9.20
2023-03-19T16:11:34.827Z,8.57
2023-03-19T16:14:17.283Z,25.00
2023-03-19T16:16:46.843Z,7.10
2023-03-19T16:19:44.051Z,8.73
2023-03-19T16:22:13.708Z,6.77
2023-03-19T16:24:42.547Z,10.83
2023-03-19T16:27:13.169Z,8.90
2023-03-19T16:29:45.307Z,7.60
2023-03-19T16:32:14.398Z,6.70
2023-03-19T16:34:43.509Z,5.63
2023-03-19T16:37:29.673Z,5.57
2023-03-19T16:39:59.005Z,7.10
2023-03-19T16:42:29.550Z,6.77
2023-03-19T16:44:57.418Z,7.23
2023-03-19T16:47:25.811Z,9.07
2023-03-19T16:49:53.221Z,7.43
2023-03-19T16:52:23.112Z,9.47
2023-03-19T16:54:51.840Z,9.87
2023-03-19T16:57:19.709Z,9.27
2023-03-19T16:59:47.949Z,12.03
2023-03-19T17:02:16.676Z,10.40
2023-03-19T17:04:45.426Z,10.27
2023-03-19T17:07:13.117Z,12.00
2023-03-19T17:09:40.995Z,11.57
2023-03-19T17:12:13.679Z,11.27
2023-03-19T17:14:41.687Z,10.80
2023-03-19T17:17:20.338Z,9.57
2023-03-19T17:19:48.109Z,10.63
2023-03-19T17:22:16.173Z,10.27
2023-03-19T17:24:44.462Z,11.57
2023-03-19T17:27:11.871Z,11.90
2023-03-19T17:29:39.783Z,10.80
2023-03-19T17:32:08.732Z,10.57
2023-03-19T17:34:36.842Z,11.20
2023-03-19T17:37:05.315Z,11.90
2023-03-19T17:39:33.768Z,13.87
2023-03-19T17:42:01.615Z,13.23
2023-03-19T17:44:29.649Z,14.63
2023-03-19T17:46:57.738Z,14.77
2023-03-19T17:49:30.099Z,14.53
2023-03-19T17:51:58.114Z,13.17
2023-03-19T17:54:27.216Z,13.93
2023-03-19T17:56:57.608Z,14.87
2023-03-19T17:59:25.842Z,14.50
2023-03-19T18:01:54.177Z,14.17
2023-03-19T18:04:22.874Z,16.27
2023-03-19T18:06:54.528Z,15.27
2023-03-19T18:09:23.595Z,20.97
2023-03-19T18:11:51.148Z,19.70
2023-03-19T18:14:19.522Z,16.07
2023-03-19T18:16:48.086Z,14.60
2023-03-19T18:19:21.177Z,17.53
2023-03-19T18:21:49.196Z,16.73
2023-03-19T18:24:16.966Z,20.00
2023-03-19T18:26:44.600Z,19.57
2023-03-19T18:29:12.720Z,19.40
2023-03-19T18:31:41.441Z,33.87
2023-03-19T18:34:11.382Z,19.83
2023-03-19T18:36:39.056Z,21.77
2023-03-19T18:39:14.192Z,17.67
2023-03-19T18:41:41.850Z,16.73
2023-03-19T18:44:12.348Z,17.60
2023-03-19T18:46:42.932Z,17.37
2023-03-19T18:49:20.119Z,18.67
2023-03-19T18:52:01.123Z,20.87
2023-03-19T18:54:30.923Z,21.33
2023-03-19T18:56:59.877Z,17.70
2023-03-19T18:59:31.092Z,16.10
2023-03-19T19:02:18.126Z,16.63
2023-03-19T19:04:48.188Z,15.63
2023-03-19T19:07:17.398Z,16.20
2023-03-19T19:09:46.230Z,15.27
2023-03-19T19:12:15.496Z,15.97
2023-03-19T19:14:44.092Z,16.53
2023-03-19T19:17:16.347Z,16.60
2023-03-19T19:19:43.710Z,15.50
2023-03-19T19:22:14.942Z,17.50
2023-03-19T19:24:42.735Z,17.30
2023-03-19T19:27:18.066Z,18.80
2023-03-19T19:29:46.197Z,19.90
2023-03-19T19:32:18.804Z,22.53
2023-03-19T19:34:46.140Z,19.03
2023-03-19T19:37:18.736Z,17.90
2023-03-19T19:39:46.543Z,17.73
2023-03-19T19:42:15.476Z,20.87
2023-03-19T19:44:44.616Z,17.40
2023-03-19T19:47:15.885Z,19.25
2023-03-19T19:49:44.472Z,18.20
2023-03-19T19:52:15.617Z,18.70
2023-03-19T19:54:42.988Z,20.52
2023-03-19T19:57:25.017Z,18.40
2023-03-19T19:59:53.407Z,17.90
2023-03-19T20:02:25.381Z,17.50
2023-03-19T20:04:52.754Z,17.70
2023-03-19T20:07:20.589Z,26.83
2023-03-19T20:09:48.380Z,20.20
2023-03-19T20:12:19.232Z,21.13
2023-03-19T20:14:46.953Z,22.67
2023-03-19T20:17:16.359Z,22.13
2023-03-19T20:19:44.446Z,20.53
2023-03-19T20:22:11.885Z,20.63
2023-03-19T20:24:39.812Z,26.57
2023-03-19T20:27:09.850Z,28.23
2023-03-19T20:29:39.777Z,25.73
2023-03-19T20:32:16.056Z,20.57
2023-03-19T20:34:43.438Z,21.83
2023-03-19T20:37:10.995Z,39.13
2023-03-19T20:39:38.433Z,23.00
2023-03-19T20:42:06.197Z,23.43
2023-03-19T20:44:33.882Z,25.23
2023-03-19T20:47:01.289Z,24.73
2023-03-19T20:49:30.869Z,25.37
2023-03-19T20:51:59.487Z,22.30
2023-03-19T20:54:28.166Z,25.30
2023-03-19T20:56:56.001Z,25.97
2023-03-19T20:59:25.767Z,25.03
2023-03-19T21:01:56.306Z,25.23
2023-03-19T21:04:24.317Z,24.37
2023-03-19T21:06:53.965Z,24.27
2023-03-19T21:09:22.111Z,24.20
2023-03-19T21:11:49.702Z,25.27
2023-03-19T21:14:17.562Z,24.73
2023-03-19T21:16:46.593Z,22.50
2023-03-19T21:19:14.244Z,24.43
2023-03-19T21:21:42.863Z,23.60
2023-03-19T21:24:15.702Z,23.70
2023-03-19T21:26:44.608Z,23.07
2023-03-19T21:29:19.919Z,22.03
2023-03-19T21:31:48.093Z,24.33
2023-03-19T21:34:15.757Z,20.93
2023-03-19T21:36:43.180Z,22.33
2023-03-19T21:39:10.912Z,22.97
2023-03-19T21:41:38.749Z,25.23
2023-03-19T21:44:07.900Z,25.10
2023-03-19T21:46:36.788Z,24.37
2023-03-19T21:49:04.234Z,22.87
2023-03-19T21:51:31.621Z,26.33
2023-03-19T21:53:59.288Z,25.57
2023-03-19T21:56:33.299Z,23.93
2023-03-19T21:59:02.209Z,20.57
2023-03-19T22:01:30.885Z,24.50
2023-03-19T22:03:58.707Z,25.97
2023-03-19T22:06:26.567Z,25.70
2023-03-19T22:08:54.831Z,28.10
2023-03-19T22:11:30.362Z,24.33
2023-03-19T22:14:19.003Z,27.47
2023-03-19T22:16:46.873Z,27.13
2023-03-19T22:19:15.063Z,25.97
2023-03-19T22:21:42.687Z,26.23
2023-03-19T22:24:10.184Z,28.37
2023-03-19T22:26:39.366Z,27.20
2023-03-19T22:29:35.967Z,26.77
2023-03-19T22:32:03.466Z,28.40
2023-03-19T22:34:31.458Z,28.23
2023-03-19T22:36:59.627Z,26.77
2023-03-19T22:39:27.047Z,29.57
2023-03-19T22:41:54.531Z,27.33
2023-03-19T22:44:27.549Z,27.13
2023-03-19T22:46:55.241Z,28.33
2023-03-19T22:49:24.599Z,29.87
2023-03-19T22:51:52.115Z,29.13
2023-03-19T22:54:19.477Z,26.23
2023-03-19T22:56:46.909Z,27.90
2023-03-19T22:59:14.532Z,29.50
2023-03-19T23:01:43.823Z,30.17
2023-03-19T23:04:27.741Z,28.53
2023-03-19T23:06:55.963Z,27.27
2023-03-19T23:09:24.687Z,27.60
2023-03-19T23:11:52.617Z,28.77
2023-03-19T23:14:36.031Z,32.37
2023-03-19T23:17:06.648Z,29.50
2023-03-19T23:19:35.585Z,30.23
2023-03-19T23:22:19.067Z,31.60
2023-03-19T23:24:46.778Z,31.63
2023-03-19T23:27:23.425Z,28.97
2023-03-19T23:29:51.110Z,30.13
2023-03-19T23:32:18.511Z,31.70
2023-03-19T23:34:58.049Z,32.93
2023-03-19T23:37:28.814Z,32.20
2023-03-19T23:39:57.612Z,33.17
2023-03-19T23:42:27.817Z,33.50
2023-03-19T23:44:56.931Z,32.23
2023-03-19T23:47:24.380Z,33.37
2023-03-19T23:49:51.773Z,31.97
2023-03-19T23:52:19.168Z,31.93
2023-03-19T23:54:46.688Z,31.50
2023-03-19T23:57:15.532Z,36.20
2023-03-19T23:59:44.770Z,33.87
